Amelia Island, Florida
Current Conditions -  °F | °C
As of 7:56 AM on Friday 31 Oct 2014 (Local Time) from KJAX Reporting Station
Few Clouds Few Clouds  
Wind Chill: 57°   Ceiling: Unl
Heat Index: 57°   Visibility: 10mi
Dew Point: 56°   Wind: 6mph
Humidity: 96%   Direction: 340°NNW
Pressure: 29.87"   Gusts: NA
Location:  30.6056°N, 81.5268°W
Report Text: KJAX 311156Z 34005KT 10SM FEW040 FEW200 14/13 A2987 RMK AO2 SLP116 T01390133 10161 20139 53008
Loading
Personal Weather Stations






























Interactive Weather Map
Tropical Storm Tracking
New forecast layout! Learn more

10-Day Weather Forecast

Advertisements
Track Severe Weather on mobile